sensor_id;sensor_type;location;lat;lon;timestamp;temperature;humidity
72940;DHT22;61094;51.154;13.570;2023-04-01T00:01:41;8.80;99.90
72940;DHT22;61094;51.154;13.570;2023-04-01T00:11:43;8.90;99.90
72940;DHT22;61094;51.154;13.570;2023-04-01T00:21:47;8.90;99.90
72940;DHT22;61094;51.154;13.570;2023-04-01T00:31:48;8.90;99.90
72940;DHT22;61094;51.154;13.570;2023-04-01T00:41:52;9.00;99.90
72940;DHT22;61094;51.154;13.570;2023-04-01T00:51:55;9.00;99.90
72940;DHT22;61094;51.154;13.570;2023-04-01T01:02:00;8.90;99.90
72940;DHT22;61094;51.154;13.570;2023-04-01T01:12:08;9.00;99.90
72940;DHT22;61094;51.154;13.570;2023-04-01T01:22:32;9.00;99.90
72940;DHT22;61094;51.154;13.570;2023-04-01T01:43:25;9.00;99.90
72940;DHT22;61094;51.154;13.570;2023-04-01T01:53:27;9.00;99.90
72940;DHT22;61094;51.154;13.570;2023-04-01T02:03:33;9.00;99.90
72940;DHT22;61094;51.154;13.570;2023-04-01T02:13:39;9.00;99.90
72940;DHT22;61094;51.154;13.570;2023-04-01T02:23:44;9.00;99.90
72940;DHT22;61094;51.154;13.570;2023-04-01T02:33:47;9.00;99.90
72940;DHT22;61094;51.154;13.570;2023-04-01T02:43:50;9.00;99.90
72940;DHT22;61094;51.154;13.570;2023-04-01T02:53:52;8.90;99.90
72940;DHT22;61094;51.154;13.570;2023-04-01T03:03:55;8.90;99.90
72940;DHT22;61094;51.154;13.570;2023-04-01T03:13:57;8.80;99.90
72940;DHT22;61094;51.154;13.570;2023-04-01T03:24:01;8.80;99.90
72940;DHT22;61094;51.154;13.570;2023-04-01T03:34:03;8.80;99.90
72940;DHT22;61094;51.154;13.570;2023-04-01T03:44:07;8.80;99.90
72940;DHT22;61094;51.154;13.570;2023-04-01T03:54:09;8.80;99.90
72940;DHT22;61094;51.154;13.570;2023-04-01T04:04:13;8.80;99.90
72940;DHT22;61094;51.154;13.570;2023-04-01T04:14:15;8.80;99.90
72940;DHT22;61094;51.154;13.570;2023-04-01T04:24:20;8.80;99.90
72940;DHT22;61094;51.154;13.570;2023-04-01T04:34:34;8.80;99.90
72940;DHT22;61094;51.154;13.570;2023-04-01T04:44:38;8.90;99.90
72940;DHT22;61094;51.154;13.570;2023-04-01T04:54:40;8.90;99.90
72940;DHT22;61094;51.154;13.570;2023-04-01T05:04:43;8.90;99.90
72940;DHT22;61094;51.154;13.570;2023-04-01T05:14:45;8.90;99.90
72940;DHT22;61094;51.154;13.570;2023-04-01T05:24:48;9.00;99.90
72940;DHT22;61094;51.154;13.570;2023-04-01T05:34:51;9.00;99.90
72940;DHT22;61094;51.154;13.570;2023-04-01T05:44:54;9.00;99.90
72940;DHT22;61094;51.154;13.570;2023-04-01T05:55:25;9.10;99.90
72940;DHT22;61094;51.154;13.570;2023-04-01T06:05:37;9.10;99.90
72940;DHT22;61094;51.154;13.570;2023-04-01T06:15:43;9.20;99.90
72940;DHT22;61094;51.154;13.570;2023-04-01T06:26:05;9.20;99.90
72940;DHT22;61094;51.154;13.570;2023-04-01T06:46:43;9.40;99.90
72940;DHT22;61094;51.154;13.570;2023-04-01T06:57:20;9.60;99.90
72940;DHT22;61094;51.154;13.570;2023-04-01T07:07:31;9.80;99.90
72940;DHT22;61094;51.154;13.570;2023-04-01T07:17:39;10.00;99.90
72940;DHT22;61094;51.154;13.570;2023-04-01T07:27:44;10.20;99.90
72940;DHT22;61094;51.154;13.570;2023-04-01T07:48:30;10.30;99.90
72940;DHT22;61094;51.154;13.570;2023-04-01T07:58:48;10.40;99.90
72940;DHT22;61094;51.154;13.570;2023-04-01T08:09:21;10.60;99.90
72940;DHT22;61094;51.154;13.570;2023-04-01T08:19:56;10.70;99.90
72940;DHT22;61094;51.154;13.570;2023-04-01T08:30:16;11.00;99.60
72940;DHT22;61094;51.154;13.570;2023-04-01T08:51:47;11.40;99.60
72940;DHT22;61094;51.154;13.570;2023-04-01T09:02:04;11.70;95.80
72940;DHT22;61094;51.154;13.570;2023-04-01T09:12:37;11.80;94.80
72940;DHT22;61094;51.154;13.570;2023-04-01T09:22:53;12.10;96.20
72940;DHT22;61094;51.154;13.570;2023-04-01T09:43:28;12.50;94.10
72940;DHT22;61094;51.154;13.570;2023-04-01T09:53:54;12.50;94.10
72940;DHT22;61094;51.154;13.570;2023-04-01T10:04:47;12.60;94.10
72940;DHT22;61094;51.154;13.570;2023-04-01T10:15:35;12.50;94.50
72940;DHT22;61094;51.154;13.570;2023-04-01T10:26:26;12.50;91.50
72940;DHT22;61094;51.154;13.570;2023-04-01T10:36:52;12.40;96.00
72940;DHT22;61094;51.154;13.570;2023-04-01T10:47:48;12.30;94.30
72940;DHT22;61094;51.154;13.570;2023-04-01T10:58:14;12.20;94.60
72940;DHT22;61094;51.154;13.570;2023-04-01T11:09:13;12.10;92.70
72940;DHT22;61094;51.154;13.570;2023-04-01T11:19:55;12.20;94.10
72940;DHT22;61094;51.154;13.570;2023-04-01T11:30:22;12.40;95.70
72940;DHT22;61094;51.154;13.570;2023-04-01T11:40:31;13.00;95.80
72940;DHT22;61094;51.154;13.570;2023-04-01T11:51:11;13.70;93.70
72940;DHT22;61094;51.154;13.570;2023-04-01T12:01:25;13.90;88.90
72940;DHT22;61094;51.154;13.570;2023-04-01T12:11:37;13.60;91.00
72940;DHT22;61094;51.154;13.570;2023-04-01T12:21:48;13.40;92.20
72940;DHT22;61094;51.154;13.570;2023-04-01T12:32:00;13.30;96.50
72940;DHT22;61094;51.154;13.570;2023-04-01T12:42:14;13.50;96.70
72940;DHT22;61094;51.154;13.570;2023-04-01T12:52:28;13.90;94.90
72940;DHT22;61094;51.154;13.570;2023-04-01T13:02:40;14.00;97.70
72940;DHT22;61094;51.154;13.570;2023-04-01T13:13:13;14.70;92.60
72940;DHT22;61094;51.154;13.570;2023-04-01T13:23:33;14.50;95.60
72940;DHT22;61094;51.154;13.570;2023-04-01T13:33:44;13.90;85.70
72940;DHT22;61094;51.154;13.570;2023-04-01T13:43:56;13.60;90.90
72940;DHT22;61094;51.154;13.570;2023-04-01T13:54:27;13.20;98.20
72940;DHT22;61094;51.154;13.570;2023-04-01T14:04:49;12.90;99.90
72940;DHT22;61094;51.154;13.570;2023-04-01T14:15:20;12.70;99.10
72940;DHT22;61094;51.154;13.570;2023-04-01T14:25:38;12.80;96.20
72940;DHT22;61094;51.154;13.570;2023-04-01T14:35:49;13.10;95.60
72940;DHT22;61094;51.154;13.570;2023-04-01T14:56:39;13.10;95.50
72940;DHT22;61094;51.154;13.570;2023-04-01T15:06:56;13.50;90.60
72940;DHT22;61094;51.154;13.570;2023-04-01T15:17:14;13.70;73.90
72940;DHT22;61094;51.154;13.570;2023-04-01T15:27:30;13.10;80.70
72940;DHT22;61094;51.154;13.570;2023-04-01T15:37:50;12.80;92.60
72940;DHT22;61094;51.154;13.570;2023-04-01T15:48:01;12.60;94.90
72940;DHT22;61094;51.154;13.570;2023-04-01T16:08:52;12.40;93.20
72940;DHT22;61094;51.154;13.570;2023-04-01T16:19:11;12.40;94.80
72940;DHT22;61094;51.154;13.570;2023-04-01T16:29:24;12.40;93.60
72940;DHT22;61094;51.154;13.570;2023-04-01T16:39:35;12.50;93.00
72940;DHT22;61094;51.154;13.570;2023-04-01T16:49:44;12.40;94.80
72940;DHT22;61094;51.154;13.570;2023-04-01T16:59:56;12.20;94.90
72940;DHT22;61094;51.154;13.570;2023-04-01T17:10:30;12.10;96.80
72940;DHT22;61094;51.154;13.570;2023-04-01T17:20:42;12.00;99.70
72940;DHT22;61094;51.154;13.570;2023-04-01T17:30:49;11.90;99.90
72940;DHT22;61094;51.154;13.570;2023-04-01T17:41:03;11.80;99.90
72940;DHT22;61094;51.154;13.570;2023-04-01T17:51:19;11.90;99.90
72940;DHT22;61094;51.154;13.570;2023-04-01T18:01:38;11.80;99.90
72940;DHT22;61094;51.154;13.570;2023-04-01T18:11:54;11.60;99.90
72940;DHT22;61094;51.154;13.570;2023-04-01T18:22:08;11.50;99.90
72940;DHT22;61094;51.154;13.570;2023-04-01T18:32:22;11.40;99.90
72940;DHT22;61094;51.154;13.570;2023-04-01T18:42:33;11.10;99.90
72940;DHT22;61094;51.154;13.570;2023-04-01T18:52:41;10.80;99.90
72940;DHT22;61094;51.154;13.570;2023-04-01T19:02:49;10.60;99.90
72940;DHT22;61094;51.154;13.570;2023-04-01T19:13:12;10.40;99.90
72940;DHT22;61094;51.154;13.570;2023-04-01T19:23:35;10.30;99.90
72940;DHT22;61094;51.154;13.570;2023-04-01T19:33:51;10.10;99.90
72940;DHT22;61094;51.154;13.570;2023-04-01T19:44:04;10.10;99.90
72940;DHT22;61094;51.154;13.570;2023-04-01T19:54:21;9.90;99.90
72940;DHT22;61094;51.154;13.570;2023-04-01T20:04:30;9.80;99.90
72940;DHT22;61094;51.154;13.570;2023-04-01T20:14:40;9.70;99.90
72940;DHT22;61094;51.154;13.570;2023-04-01T20:24:46;9.60;99.90
72940;DHT22;61094;51.154;13.570;2023-04-01T20:34:51;9.60;99.90
72940;DHT22;61094;51.154;13.570;2023-04-01T20:45:17;9.50;99.90
72940;DHT22;61094;51.154;13.570;2023-04-01T20:55:47;9.40;99.90
72940;DHT22;61094;51.154;13.570;2023-04-01T21:16:37;9.30;99.90
72940;DHT22;61094;51.154;13.570;2023-04-01T21:26:50;9.20;99.90
72940;DHT22;61094;51.154;13.570;2023-04-01T21:37:05;9.00;99.90
72940;DHT22;61094;51.154;13.570;2023-04-01T22:08:33;8.40;99.90
72940;DHT22;61094;51.154;13.570;2023-04-01T22:18:40;8.20;99.90
72940;DHT22;61094;51.154;13.570;2023-04-01T22:28:51;8.00;99.90
72940;DHT22;61094;51.154;13.570;2023-04-01T22:39:04;7.90;99.90
72940;DHT22;61094;51.154;13.570;2023-04-01T22:49:14;7.80;99.90
72940;DHT22;61094;51.154;13.570;2023-04-01T22:59:19;7.80;99.90
72940;DHT22;61094;51.154;13.570;2023-04-01T23:09:26;7.60;99.90
72940;DHT22;61094;51.154;13.570;2023-04-01T23:19:36;7.60;99.90
72940;DHT22;61094;51.154;13.570;2023-04-01T23:29:43;7.40;99.90
72940;DHT22;61094;51.154;13.570;2023-04-01T23:39:46;7.20;99.90
72940;DHT22;61094;51.154;13.570;2023-04-01T23:49:52;7.10;99.90
